Search for airport 
image banner adimage banner adimage banner ad
image banner ad

KDAG - Barstow-Daggett

Located in Daggett, United States

ICAO - DAG, IATA - DAG

Data provided by Airmate  

General information

Coordinates: N34°51'13" W116°47'12"
Elevation is 1930 feet MSL.
Magnetic variation is 15° East
View others Airports in California

Operational data

Special qualification required
Current time UTC:
Current local time:
Weather
METAR: KDAG 210050Z AUTO 08005KT 10SM CLR 33/M01 A2997 RMK AO2 SLP126 T03281011
TAF: KDAG 202320Z 2100/2124 07010KT P6SM SKC FM210300 VRB04KT P6SM SKC FM210800 28006KT P6SM SKC FM211900 06010KT P6SM SKC
View NOTAMs / SUP AIP / TFR affecting this airport [VIEW]
Communications frequencies: [VIEW]

Runways:

RWY identifierQFULength (ft)Width (ft)SurfaceLDA (ft)
0450°5123100ASPH
22230°5123100ASPH
0889°6402150ASPH
26270°6402150ASPH

Airport contact information

Address: Daggett United States

Satellite view of KDAG